Time;durP1;ratioP1;P1;durP2;ratioP2;P2;SDS_P1;SDS_P2;PMS_P1;PMS_P2;Temp;Humidity;BMP_temperature;BMP_pressure;BME280_temperature;BME280_humidity;BME280_pressure;Samples;Min_cycle;Max_cycle;Signal;HPM_P1;HPM_P2
2023/12/16 00:02:36;;;;;;;2.65;1.63;;;;;;;16.23;59.64;103623.94;10495695;28;20047;-53
2023/12/16 00:07:37;;;;;;;6.38;2.40;;;;;;;16.23;59.72;103615.91;10493626;28;20395;-52
2023/12/16 00:12:37;;;;;;;4.87;2.63;;;;;;;16.20;60.24;103614.44;10495803;28;20025;-54
2023/12/16 00:17:37;;;;;;;5.05;2.28;;;;;;;16.19;58.87;103614.66;10495246;28;20258;-53
2023/12/16 00:22:38;;;;;;;4.72;2.13;;;;;;;16.18;60.24;103613.84;10495757;28;20028;-51
2023/12/16 00:27:38;;;;;;;4.05;2.42;;;;;;;16.17;59.33;103609.50;10494557;28;20071;-54
2023/12/16 00:32:39;;;;;;;4.70;2.40;;;;;;;16.16;59.23;103610.53;10504815;28;20693;-54
2023/12/16 00:37:40;;;;;;;7.03;3.17;;;;;;;16.15;60.31;103621.47;10494703;28;20267;-52
2023/12/16 00:42:40;;;;;;;4.60;2.27;;;;;;;16.14;59.48;103622.50;10490844;28;20037;-53
2023/12/16 00:47:40;;;;;;;4.03;2.57;;;;;;;16.12;60.29;103617.34;10493674;28;20328;-52
2023/12/16 00:52:42;;;;;;;4.68;2.63;;;;;;;16.12;58.83;103613.84;10493307;28;20282;-54
2023/12/16 00:57:42;;;;;;;5.05;3.30;;;;;;;16.12;59.80;103608.50;10493870;28;20098;-53
2023/12/16 01:02:42;;;;;;;10.27;2.87;;;;;;;16.11;60.39;103606.88;10493400;28;20052;-54
2023/12/16 01:07:43;;;;;;;3.97;1.90;;;;;;;16.07;59.92;103596.56;10493088;28;20302;-54
2023/12/16 01:12:43;;;;;;;4.18;2.00;;;;;;;16.07;60.35;103598.41;10492107;28;20722;-53
2023/12/16 01:17:43;;;;;;;4.23;1.80;;;;;;;16.07;59.40;103593.88;10493040;28;20028;-54
2023/12/16 01:22:44;;;;;;;4.93;2.67;;;;;;;16.05;59.42;103595.13;10492558;28;20694;-52
2023/12/16 01:27:44;;;;;;;4.97;2.23;;;;;;;16.04;58.91;103588.94;10492558;28;20289;-53
2023/12/16 01:32:44;;;;;;;3.67;2.17;;;;;;;16.04;59.83;103574.75;10502134;28;20263;-54
2023/12/16 01:37:45;;;;;;;4.57;2.20;;;;;;;16.03;59.75;103576.59;10492442;28;20032;-53
2023/12/16 01:42:46;;;;;;;3.43;2.07;;;;;;;16.01;59.86;103580.53;10488335;28;20320;-53
2023/12/16 01:47:46;;;;;;;5.13;2.22;;;;;;;16.01;59.39;103575.16;10491647;28;20294;-51
2023/12/16 01:52:47;;;;;;;3.45;1.88;;;;;;;15.99;60.43;103594.09;10491520;28;20032;-54
2023/12/16 01:57:47;;;;;;;6.55;2.53;;;;;;;15.99;59.79;103601.31;10492174;28;20016;-53
2023/12/16 02:02:47;;;;;;;2.80;1.50;;;;;;;15.98;59.62;103605.84;10491534;28;20082;-53
2023/12/16 02:07:48;;;;;;;3.67;1.85;;;;;;;15.98;60.41;103610.34;10489951;28;20045;-53
2023/12/16 02:12:49;;;;;;;3.53;1.90;;;;;;;15.97;58.90;103616.72;10490964;28;20020;-53
2023/12/16 02:17:49;;;;;;;5.38;1.60;;;;;;;15.96;59.20;103615.91;10490461;28;20275;-52
2023/12/16 02:22:50;;;;;;;4.77;1.73;;;;;;;15.96;59.51;103609.75;10493315;28;20036;-52
2023/12/16 02:27:50;;;;;;;3.75;1.67;;;;;;;15.94;59.29;103601.09;10499799;28;20324;-52
2023/12/16 02:32:55;;;;;;;3.20;1.77;;;;;;;15.92;59.40;103590.59;10508907;28;20024;-51
2023/12/16 02:37:55;;;;;;;4.53;1.63;;;;;;;15.92;58.68;103605.84;10499298;28;20039;-51
2023/12/16 02:42:56;;;;;;;3.60;2.30;;;;;;;15.92;58.83;103611.19;10494317;28;20028;-52
2023/12/16 02:47:56;;;;;;;3.17;1.63;;;;;;;15.90;58.57;103598.03;10470033;28;20054;-54
2023/12/16 02:52:56;;;;;;;6.25;2.33;;;;;;;15.89;58.53;103588.34;10498360;28;20387;-52
2023/12/16 02:57:57;;;;;;;4.38;1.67;;;;;;;15.89;58.44;103588.34;10498445;28;20471;-53
2023/12/16 03:02:57;;;;;;;3.63;2.10;;;;;;;15.87;58.61;103593.09;10497918;28;20365;-54
2023/12/16 03:07:57;;;;;;;4.47;1.83;;;;;;;15.87;59.75;103582.38;10498422;28;20382;-53
2023/12/16 03:12:58;;;;;;;4.60;2.33;;;;;;;15.85;59.81;103573.72;10529791;28;20281;-54
2023/12/16 03:17:58;;;;;;;4.70;2.30;;;;;;;15.85;58.79;103578.25;10504734;28;20035;-55
2023/12/16 03:22:58;;;;;;;5.17;2.30;;;;;;;15.84;58.63;103590.81;10497248;28;20321;-53
2023/12/16 03:27:59;;;;;;;4.82;2.22;;;;;;;15.83;60.04;103583.81;10497306;28;20665;-52
2023/12/16 03:32:59;;;;;;;5.37;1.90;;;;;;;15.84;59.18;103587.31;10507565;28;20376;-53
2023/12/16 03:38:00;;;;;;;4.00;1.70;;;;;;;15.85;59.92;103572.91;10496507;28;20286;-54
2023/12/16 03:43:00;;;;;;;3.35;1.88;;;;;;;15.94;58.89;103574.34;10492729;28;20365;-55
2023/12/16 03:48:01;;;;;;;3.70;1.80;;;;;;;16.17;58.60;103571.22;10524329;28;20024;-55
2023/12/16 03:53:01;;;;;;;4.30;1.70;;;;;;;16.43;57.82;103578.34;10509903;28;20039;-54
2023/12/16 03:58:01;;;;;;;3.17;1.67;;;;;;;16.63;56.76;103579.09;10496427;28;20282;-54
2023/12/16 04:03:02;;;;;;;3.53;1.63;;;;;;;16.84;56.92;103570.81;10495306;28;20555;-55
2023/12/16 04:08:03;;;;;;;4.80;2.50;;;;;;;17.02;55.58;103564.72;10496002;28;20051;-55
2023/12/16 04:13:03;;;;;;;4.47;1.70;;;;;;;17.17;55.18;103570.63;10495392;28;20514;-54
2023/12/16 04:18:04;;;;;;;3.93;1.43;;;;;;;17.27;56.61;103571.97;10504258;28;20035;-54
2023/12/16 04:23:04;;;;;;;3.13;1.85;;;;;;;17.41;56.30;103574.38;10508250;28;20752;-54
2023/12/16 04:28:05;;;;;;;4.30;1.70;;;;;;;17.46;54.87;103568.34;10495206;28;20535;-55
2023/12/16 04:33:05;;;;;;;3.07;1.53;;;;;;;17.53;55.05;103577.16;10503593;28;20028;-53
2023/12/16 04:38:05;;;;;;;3.37;1.40;;;;;;;17.59;55.67;103575.47;10493584;28;20832;-51
2023/12/16 04:43:06;;;;;;;3.78;1.60;;;;;;;17.68;53.99;103574.97;10490664;28;20314;-54
2023/12/16 04:48:06;;;;;;;3.43;1.93;;;;;;;17.73;55.01;103580.50;10484408;28;20033;-53
2023/12/16 04:53:07;;;;;;;2.80;1.43;;;;;;;17.82;54.85;103592.63;10483994;28;20298;-53
2023/12/16 04:58:07;;;;;;;7.13;1.95;;;;;;;17.93;54.68;103601.00;10474465;28;20266;-53
2023/12/16 05:03:07;;;;;;;4.13;1.52;;;;;;;18.00;53.43;103588.34;10469091;28;20413;-54
2023/12/16 05:08:08;;;;;;;2.73;1.13;;;;;;;18.06;54.92;103584.75;10491721;28;20524;-55
2023/12/16 05:13:12;;;;;;;3.80;1.52;;;;;;;18.13;54.47;103585.53;10492777;28;20279;-54
2023/12/16 05:18:12;;;;;;;3.50;1.38;;;;;;;18.19;53.33;103575.75;10493475;28;20059;-54
2023/12/16 05:23:14;;;;;;;5.67;1.67;;;;;;;18.19;53.75;103567.69;10492308;28;20618;-55
2023/12/16 05:28:14;;;;;;;4.80;2.17;;;;;;;18.15;54.04;103571.88;10491732;28;20298;-53
2023/12/16 05:33:14;;;;;;;5.07;2.07;;;;;;;18.09;54.42;103576.25;10501812;28;20086;-53
2023/12/16 05:38:15;;;;;;;3.13;2.03;;;;;;;18.05;54.40;103569.69;10492349;28;20275;-55
2023/12/16 05:43:15;;;;;;;4.00;1.90;;;;;;;18.08;53.89;103558.50;10477415;28;20283;-55
2023/12/16 05:48:15;;;;;;;3.23;1.60;;;;;;;18.07;54.01;103557.69;10490977;28;20313;-55
2023/12/16 05:53:15;;;;;;;4.47;1.40;;;;;;;18.04;55.23;103566.19;10478583;28;20288;-53
2023/12/16 05:58:16;;;;;;;3.17;1.93;;;;;;;18.04;54.37;103570.75;10498282;28;20779;-54
2023/12/16 06:03:16;;;;;;;1.85;1.30;;;;;;;18.01;54.77;103584.63;10476830;28;20349;-54
2023/12/16 06:08:16;;;;;;;3.70;1.52;;;;;;;17.98;54.81;103577.81;10527053;28;20052;-55
2023/12/16 06:13:18;;;;;;;2.63;1.25;;;;;;;17.97;54.21;103578.03;10532958;28;20055;-53
2023/12/16 06:18:18;;;;;;;3.70;1.43;;;;;;;17.96;55.03;103565.66;10495698;28;20017;-53
2023/12/16 06:23:18;;;;;;;3.17;1.20;;;;;;;17.94;54.43;103568.56;10491182;28;20293;-53
2023/12/16 06:28:19;;;;;;;2.17;1.57;;;;;;;17.90;55.35;103559.31;10491464;28;20299;-48
2023/12/16 06:33:19;;;;;;;6.57;2.10;;;;;;;17.90;55.40;103583.47;10501276;28;20297;-53
2023/12/16 06:38:20;;;;;;;7.20;1.87;;;;;;;17.94;55.65;103587.34;10491186;28;20021;-52
2023/12/16 06:43:20;;;;;;;9.55;2.22;;;;;;;17.85;56.00;103590.53;10485648;28;20282;-54
2023/12/16 06:48:21;;;;;;;7.67;2.00;;;;;;;17.76;57.43;103582.78;10469498;28;20028;-55
2023/12/16 06:53:21;;;;;;;17.58;2.65;;;;;;;17.76;56.90;103580.09;10470533;28;20696;-55
2023/12/16 06:58:21;;;;;;;9.50;2.37;;;;;;;17.81;56.86;103590.97;10483461;28;20056;-54
2023/12/16 07:03:22;;;;;;;7.18;2.30;;;;;;;17.83;57.58;103588.91;10481105;28;20275;-53
2023/12/16 07:08:22;;;;;;;13.37;2.10;;;;;;;17.82;58.06;103594.50;10477574;28;20044;-52
2023/12/16 07:13:22;;;;;;;5.53;2.00;;;;;;;17.84;57.69;103595.09;10458090;28;20282;-53
2023/12/16 07:18:23;;;;;;;9.85;2.22;;;;;;;17.87;57.84;103591.13;10469589;28;20267;-55
2023/12/16 07:23:24;;;;;;;12.53;3.03;;;;;;;17.83;58.92;103601.50;10476675;28;21265;-54
2023/12/16 07:28:24;;;;;;;14.60;2.10;;;;;;;17.83;58.42;103604.19;10495454;28;20302;-50
2023/12/16 07:33:24;;;;;;;8.00;1.60;;;;;;;17.68;57.67;103609.84;10494793;28;20494;-55
2023/12/16 07:38:25;;;;;;;12.75;2.25;;;;;;;17.61;59.31;103606.38;10474296;28;20279;-55
2023/12/16 07:43:26;;;;;;;11.10;2.73;;;;;;;17.58;59.74;103616.75;10476671;28;20024;-55
2023/12/16 07:48:26;;;;;;;14.55;2.20;;;;;;;17.51;58.12;103614.91;10476260;28;20024;-54
2023/12/16 07:53:26;;;;;;;4.43;2.47;;;;;;;17.49;58.25;103621.53;10483053;28;20032;-52
2023/12/16 07:58:27;;;;;;;5.40;2.50;;;;;;;17.58;58.98;103611.38;10475591;28;20270;-52
2023/12/16 08:03:27;;;;;;;10.20;3.55;;;;;;;17.62;57.76;103615.25;10479206;28;20284;-55
2023/12/16 08:08:28;;;;;;;7.00;3.37;;;;;;;17.58;58.67;103603.34;10477579;28;20045;-53
2023/12/16 08:13:28;;;;;;;6.35;2.38;;;;;;;17.50;58.39;103607.09;10470352;28;20707;-52
2023/12/16 08:18:28;;;;;;;9.83;3.17;;;;;;;17.47;58.96;103621.75;10472171;28;20025;-53
2023/12/16 08:23:29;;;;;;;8.43;3.37;;;;;;;17.32;59.56;103613.22;10465285;28;20295;-54
2023/12/16 08:28:29;;;;;;;9.32;2.60;;;;;;;17.31;59.26;103622.28;10476825;28;20373;-51
2023/12/16 08:33:30;;;;;;;9.60;3.35;;;;;;;17.35;60.18;103636.91;10473362;28;20025;-53
2023/12/16 08:38:32;;;;;;;12.27;3.67;;;;;;;17.32;59.59;103633.84;10490778;28;20115;-52
2023/12/16 08:43:32;;;;;;;13.35;3.42;;;;;;;17.40;59.28;103637.06;10471019;28;20386;-53
2023/12/16 08:48:34;;;;;;;16.77;4.10;;;;;;;17.42;59.23;103647.63;10477416;28;20041;-53
2023/12/16 08:53:34;;;;;;;16.33;3.47;;;;;;;17.44;60.70;103645.53;10469683;28;20611;-52
2023/12/16 08:58:35;;;;;;;16.52;4.40;;;;;;;17.44;61.49;103659.75;10466844;28;20009;-53
2023/12/16 09:03:36;;;;;;;13.03;3.37;;;;;;;17.44;60.70;103657.09;10477397;28;20024;-50
2023/12/16 09:08:36;;;;;;;14.93;3.80;;;;;;;17.43;60.99;103658.13;10464999;28;20303;-53
2023/12/16 09:13:37;;;;;;;17.00;4.95;;;;;;;17.50;61.17;103666.09;10467947;28;20028;-51
2023/12/16 09:18:37;;;;;;;14.20;3.35;;;;;;;17.52;60.58;103677.44;10469350;28;20024;-53
2023/12/16 09:23:37;;;;;;;13.18;3.30;;;;;;;17.45;59.95;103692.78;10468478;28;20043;-53
2023/12/16 09:28:38;;;;;;;10.33;3.07;;;;;;;17.45;61.19;103690.09;10467437;28;20125;-53
2023/12/16 09:33:38;;;;;;;14.03;3.33;;;;;;;17.39;60.69;103688.25;10475090;28;20279;-54
2023/12/16 09:38:39;;;;;;;8.37;2.80;;;;;;;17.35;60.31;103695.09;10492030;28;20267;-52
2023/12/16 09:43:41;;;;;;;15.23;5.25;;;;;;;17.34;59.69;103690.78;10486260;28;20306;-54
2023/12/16 09:48:42;;;;;;;15.70;3.10;;;;;;;17.30;60.18;103697.59;10464890;28;20044;-49
2023/12/16 09:53:43;;;;;;;18.58;3.65;;;;;;;17.32;59.40;103699.03;10467263;28;20029;-49
2023/12/16 09:58:45;;;;;;;10.75;3.58;;;;;;;17.29;60.29;103701.34;10466810;28;20013;-52
2023/12/16 10:03:46;;;;;;;14.75;4.03;;;;;;;17.30;60.48;103702.97;10451691;28;20381;-49
2023/12/16 10:08:47;;;;;;;17.65;3.55;;;;;;;17.27;60.82;103700.69;10461177;28;20065;-52
2023/12/16 10:13:58;;;;;;;19.15;5.22;;;;;;;17.30;59.13;103706.47;10473669;28;20040;-50
2023/12/16 10:18:59;;;;;;;15.82;3.13;;;;;;;17.25;60.22;103706.28;10479735;28;20438;-50
2023/12/16 10:24:00;;;;;;;12.55;3.10;;;;;;;17.28;59.27;103696.97;10485094;28;20080;-53
2023/12/16 10:29:04;;;;;;;11.85;4.22;;;;;;;17.32;58.89;103691.00;10489803;28;20047;-52
2023/12/16 10:34:05;;;;;;;11.32;3.65;;;;;;;17.29;60.17;103686.06;10472593;28;20392;-52
2023/12/16 10:39:05;;;;;;;13.67;4.13;;;;;;;17.33;59.20;103692.63;10473720;28;20064;-51
2023/12/16 10:44:06;;;;;;;13.25;3.42;;;;;;;17.35;59.13;103689.72;10482428;28;20837;-53
2023/12/16 10:49:07;;;;;;;9.93;3.27;;;;;;;17.31;59.67;103689.34;10484612;28;20052;-52
2023/12/16 10:54:17;;;;;;;18.80;3.65;;;;;;;17.31;58.71;103678.63;10493599;28;20286;-53
2023/12/16 10:59:23;;;;;;;10.70;3.97;;;;;;;17.40;58.36;103681.84;10493946;28;20521;-52
2023/12/16 11:04:24;;;;;;;10.60;3.25;;;;;;;17.37;60.04;103671.56;10539296;28;20028;-53
2023/12/16 11:09:25;;;;;;;20.35;4.85;;;;;;;17.43;59.89;103676.06;10515343;28;20415;-52
2023/12/16 11:14:27;;;;;;;16.77;4.38;;;;;;;17.49;60.10;103667.16;10516012;28;20107;-52
2023/12/16 11:19:33;;;;;;;12.88;4.65;;;;;;;17.49;60.81;103659.09;10507805;28;20036;-50
2023/12/16 11:24:40;;;;;;;20.00;4.20;;;;;;;17.39;59.82;103648.03;10517776;28;20012;-53
2023/12/16 11:29:41;;;;;;;17.70;4.90;;;;;;;17.49;60.89;103638.47;10519460;28;20733;-51
2023/12/16 11:34:48;;;;;;;24.92;5.05;;;;;;;17.42;61.09;103643.06;10498812;28;20099;-51
2023/12/16 11:39:49;;;;;;;23.00;4.95;;;;;;;17.44;60.65;103638.31;10496782;28;20489;-54
2023/12/16 11:44:53;;;;;;;17.55;4.35;;;;;;;17.45;61.87;103636.44;10495106;28;20051;-52
2023/12/16 11:49:55;;;;;;;27.88;5.32;;;;;;;17.41;62.23;103622.66;10509351;28;20037;-56
2023/12/16 11:54:56;;;;;;;13.88;3.53;;;;;;;17.44;61.24;103607.97;10487784;28;20047;-55
2023/12/16 11:59:57;;;;;;;26.40;5.10;;;;;;;17.39;60.71;103611.28;10496277;28;20479;-51
2023/12/16 12:05:00;;;;;;;17.15;5.38;;;;;;;17.35;60.98;103598.53;10496082;28;20037;-54
2023/12/16 12:10:00;;;;;;;19.20;4.53;;;;;;;17.30;61.11;103601.88;10489940;28;20468;-53
2023/12/16 12:15:00;;;;;;;17.23;4.03;;;;;;;17.28;61.64;103597.75;10496080;28;20039;-51
2023/12/16 12:20:01;;;;;;;18.48;4.13;;;;;;;17.21;61.12;103598.63;10495280;28;20281;-52
2023/12/16 12:25:02;;;;;;;22.63;5.43;;;;;;;17.23;61.97;103575.09;10495547;28;20046;-53
2023/12/16 12:30:06;;;;;;;20.50;4.13;;;;;;;17.30;60.86;103571.56;10503647;28;20519;-53
2023/12/16 12:35:07;;;;;;;15.80;4.07;;;;;;;17.28;60.97;103569.06;10482760;28;20043;-54
2023/12/16 12:40:13;;;;;;;15.68;4.85;;;;;;;17.23;61.20;103563.56;10494484;28;20019;-54
2023/12/16 12:45:26;;;;;;;15.23;5.10;;;;;;;17.20;63.19;103561.31;10491523;28;20036;-54
2023/12/16 12:50:27;;;;;;;16.48;4.57;;;;;;;17.18;61.74;103547.31;10466582;28;20055;-54
2023/12/16 12:55:27;;;;;;;16.23;4.00;;;;;;;17.17;62.54;103546.50;10473718;28;20027;-54
2023/12/16 13:00:27;;;;;;;19.67;5.40;;;;;;;17.18;63.12;103547.31;10468703;28;20791;-53
2023/12/16 13:05:28;;;;;;;18.80;4.47;;;;;;;17.18;62.20;103545.44;10488765;28;20078;-53
2023/12/16 13:10:28;;;;;;;16.03;5.10;;;;;;;17.22;62.00;103538.59;10502233;28;20368;-52
2023/12/16 13:15:28;;;;;;;21.15;5.18;;;;;;;17.20;61.59;103538.00;10490353;28;20295;-53
2023/12/16 13:20:29;;;;;;;18.47;5.40;;;;;;;17.18;61.50;103533.91;10492965;28;20035;-52
2023/12/16 13:25:29;;;;;;;20.07;4.63;;;;;;;17.20;61.33;103543.38;10484755;28;20639;-51
2023/12/16 13:30:29;;;;;;;17.30;5.10;;;;;;;17.20;62.96;103534.50;10480204;28;20302;-52
2023/12/16 13:35:30;;;;;;;16.33;5.50;;;;;;;17.16;62.42;103525.22;10480957;28;20769;-52
2023/12/16 13:40:31;;;;;;;19.20;6.43;;;;;;;17.20;62.55;103534.50;10485375;28;20352;-52
2023/12/16 13:45:31;;;;;;;11.83;4.10;;;;;;;17.16;61.63;103522.53;10466433;28;20545;-53
2023/12/16 13:50:32;;;;;;;21.67;4.85;;;;;;;17.12;63.46;103526.72;10469978;28;20290;-53
2023/12/16 13:55:32;;;;;;;15.70;4.47;;;;;;;17.11;63.49;103525.06;10489568;28;20475;-53
2023/12/16 14:00:33;;;;;;;21.40;4.77;;;;;;;17.13;62.74;103523.81;10485126;28;20278;-53
2023/12/16 14:05:33;;;;;;;19.35;4.53;;;;;;;17.14;62.93;103524.63;10476244;28;20287;-52
2023/12/16 14:10:35;;;;;;;17.67;5.90;;;;;;;17.15;62.71;103534.31;10477598;28;20033;-54
2023/12/16 14:15:36;;;;;;;11.90;3.97;;;;;;;17.18;62.24;103531.22;10490063;28;20107;-53
2023/12/16 14:20:37;;;;;;;17.88;4.95;;;;;;;17.22;62.65;103532.41;10490709;28;20077;-53
2023/12/16 14:25:37;;;;;;;14.97;4.00;;;;;;;17.23;61.44;103531.38;10491590;28;20020;-53
2023/12/16 14:30:37;;;;;;;9.33;3.67;;;;;;;17.23;62.36;103536.75;10474921;28;20294;-52
2023/12/16 14:35:38;;;;;;;12.33;4.13;;;;;;;17.23;61.96;103517.97;10471230;28;20287;-53
2023/12/16 14:40:40;;;;;;;10.17;3.60;;;;;;;17.25;62.22;103522.06;10490604;28;20278;-52
2023/12/16 14:45:40;;;;;;;13.90;3.65;;;;;;;17.24;61.47;103515.06;10490914;28;20339;-52
2023/12/16 14:50:40;;;;;;;15.23;4.47;;;;;;;17.27;60.89;103492.34;10490289;28;20028;-53
2023/12/16 14:55:41;;;;;;;11.37;3.53;;;;;;;17.28;61.63;103487.81;10470372;28;20118;-53
2023/12/16 15:00:43;;;;;;;12.30;2.77;;;;;;;17.30;60.54;103478.53;10509751;28;20368;-54
2023/12/16 15:05:44;;;;;;;8.60;2.80;;;;;;;17.27;61.07;103476.25;10507572;28;20302;-54
2023/12/16 15:10:45;;;;;;;6.75;2.05;;;;;;;17.30;61.71;103475.84;10483789;28;20032;-53
2023/12/16 15:15:45;;;;;;;6.45;2.25;;;;;;;17.32;61.72;103483.66;10475124;28;20025;-55
2023/12/16 15:20:45;;;;;;;8.90;2.53;;;;;;;17.25;61.27;103487.22;10477541;28;20009;-54
2023/12/16 15:25:46;;;;;;;6.93;2.40;;;;;;;17.31;61.23;103487.38;10468202;28;20407;-54
2023/12/16 15:30:46;;;;;;;16.93;3.10;;;;;;;17.25;60.96;103491.75;10467665;28;20341;-50
2023/12/16 15:35:47;;;;;;;12.88;3.30;;;;;;;17.27;61.81;103507.63;10470286;28;20672;-48
2023/12/16 15:40:47;;;;;;;10.45;3.00;;;;;;;17.23;60.76;103502.69;10471097;28;20048;-49
2023/12/16 15:45:48;;;;;;;10.13;2.70;;;;;;;17.28;61.36;103502.03;10471251;28;20021;-50
2023/12/16 15:50:48;;;;;;;15.60;3.07;;;;;;;17.27;61.63;103507.63;10469121;28;20025;-52
2023/12/16 15:55:48;;;;;;;14.93;3.40;;;;;;;17.28;60.89;103507.41;10470703;28;20285;-50
2023/12/16 16:00:50;;;;;;;14.87;3.83;;;;;;;17.27;60.87;103512.97;10469355;28;20286;-51
2023/12/16 16:05:50;;;;;;;8.05;2.53;;;;;;;17.27;62.30;103524.53;10470034;28;20291;-50
2023/12/16 16:10:51;;;;;;;14.97;3.53;;;;;;;17.25;63.21;103508.66;10474875;28;20021;-50
2023/12/16 16:15:52;;;;;;;13.60;3.50;;;;;;;17.29;62.58;103514.44;10476105;28;20286;-49
2023/12/16 16:20:52;;;;;;;14.07;3.20;;;;;;;17.26;62.36;103512.16;10465243;28;20816;-50
2023/12/16 16:25:53;;;;;;;12.77;3.67;;;;;;;17.24;62.97;103511.56;10473694;28;20290;-52
2023/12/16 16:30:53;;;;;;;16.20;3.70;;;;;;;17.31;61.72;103511.53;10441095;28;20742;-50
2023/12/16 16:35:53;;;;;;;18.98;4.72;;;;;;;17.36;63.74;103517.03;10473444;28;20113;-52
2023/12/16 16:40:54;;;;;;;11.60;5.03;;;;;;;17.44;63.29;103517.59;10459891;28;20395;-52
2023/12/16 16:45:55;;;;;;;14.02;6.53;;;;;;;17.40;62.26;103519.06;10473672;28;20317;-54
2023/12/16 16:50:55;;;;;;;14.77;6.20;;;;;;;17.42;63.27;103524.22;10487310;28;20017;-51
2023/12/16 16:55:55;;;;;;;16.87;6.73;;;;;;;17.44;63.24;103530.19;10475405;28;20017;-52
2023/12/16 17:00:56;;;;;;;22.73;6.32;;;;;;;17.53;65.00;103512.78;10476235;28;20278;-52
2023/12/16 17:05:56;;;;;;;12.37;4.93;;;;;;;17.61;64.12;103507.13;10489783;28;20052;-54
2023/12/16 17:10:59;;;;;;;13.45;4.60;;;;;;;17.65;62.43;103507.50;10490459;28;20328;-51
2023/12/16 17:15:59;;;;;;;11.85;4.63;;;;;;;17.67;63.51;103502.75;10490716;28;20081;-52
2023/12/16 17:20:59;;;;;;;17.73;5.97;;;;;;;17.64;62.74;103498.66;10489846;28;20073;-54
2023/12/16 17:26:03;;;;;;;12.15;3.70;;;;;;;17.64;63.26;103511.22;10489677;28;20321;-49
2023/12/16 17:31:04;;;;;;;19.10;4.65;;;;;;;17.76;60.68;103506.81;10482037;28;20613;-54
2023/12/16 17:36:04;;;;;;;20.98;5.03;;;;;;;17.80;61.14;103495.41;10509578;28;20034;-54
2023/12/16 17:41:06;;;;;;;16.33;4.55;;;;;;;17.89;60.87;103509.38;10521560;28;20036;-52
2023/12/16 17:46:06;;;;;;;21.00;4.72;;;;;;;17.89;62.11;103498.63;10489380;28;20029;-52
2023/12/16 17:51:08;;;;;;;14.23;4.47;;;;;;;17.82;61.94;103497.88;10492160;28;20028;-53
2023/12/16 17:56:08;;;;;;;19.38;4.15;;;;;;;17.84;61.96;103501.13;10510348;28;20270;-50
2023/12/16 18:01:09;;;;;;;17.10;4.50;;;;;;;17.78;61.82;103507.41;10523644;28;20024;-56
2023/12/16 18:06:09;;;;;;;13.98;4.32;;;;;;;17.75;62.14;103511.34;10512887;28;20323;-54
2023/12/16 18:11:10;;;;;;;14.60;4.30;;;;;;;17.76;62.69;103493.41;10530310;28;20032;-50
2023/12/16 18:16:10;;;;;;;17.08;4.90;;;;;;;17.61;62.50;103499.06;10508939;28;20032;-49
2023/12/16 18:21:11;;;;;;;12.73;3.75;;;;;;;17.52;62.77;103495.00;10476813;28;20059;-50
2023/12/16 18:26:12;;;;;;;16.58;3.65;;;;;;;17.52;63.01;103495.00;10498732;28;20016;-52
2023/12/16 18:31:13;;;;;;;12.18;4.53;;;;;;;17.50;61.40;103499.78;10496679;28;20020;-51
2023/12/16 18:36:13;;;;;;;9.10;3.15;;;;;;;17.43;61.99;103493.69;10487560;28;20039;-53
2023/12/16 18:41:13;;;;;;;10.43;5.05;;;;;;;17.40;61.87;103513.69;10486658;28;20041;-54
2023/12/16 18:46:14;;;;;;;9.53;3.17;;;;;;;17.37;61.48;103511.44;10527495;28;20035;-52
2023/12/16 18:51:14;;;;;;;10.23;3.47;;;;;;;17.33;61.45;103512.94;10529445;28;20281;-53
2023/12/16 18:56:15;;;;;;;9.77;3.23;;;;;;;17.34;61.53;103514.59;10529139;28;20425;-52
2023/12/16 19:01:15;;;;;;;10.85;3.38;;;;;;;17.32;61.16;103545.34;10529591;28;20258;-53
2023/12/16 19:06:15;;;;;;;7.57;3.27;;;;;;;17.35;62.34;103544.91;10531486;28;20047;-53
2023/12/16 19:11:16;;;;;;;8.70;3.50;;;;;;;17.34;62.65;103536.03;10536925;28;20836;-52
2023/12/16 19:16:16;;;;;;;7.43;3.27;;;;;;;17.29;61.73;103533.19;10515818;28;20047;-52
2023/12/16 19:21:16;;;;;;;6.70;3.07;;;;;;;17.32;60.98;103530.06;10494809;28;20275;-51
2023/12/16 19:26:16;;;;;;;8.53;3.30;;;;;;;17.37;62.30;103535.59;10494149;28;20279;-52
2023/12/16 19:31:17;;;;;;;8.13;3.87;;;;;;;17.34;61.19;103549.44;10496683;28;20759;-49
2023/12/16 19:36:17;;;;;;;7.20;3.33;;;;;;;17.35;60.94;103558.31;10474011;28;20035;-51
2023/12/16 19:41:17;;;;;;;8.17;3.43;;;;;;;17.37;60.68;103556.22;10490908;28;20365;-51
2023/12/16 19:46:18;;;;;;;6.27;3.43;;;;;;;17.38;61.55;103555.19;10533143;28;20265;-52
2023/12/16 19:51:19;;;;;;;9.00;3.13;;;;;;;17.43;60.08;103544.66;10493817;28;20278;-53
2023/12/16 19:56:20;;;;;;;9.65;3.28;;;;;;;17.58;61.39;103547.81;10476021;28;20275;-51
2023/12/16 20:01:20;;;;;;;7.50;3.63;;;;;;;17.51;61.83;103558.59;10499865;28;20028;-52
2023/12/16 20:06:21;;;;;;;8.30;3.03;;;;;;;17.41;60.44;103574.38;10474133;28;20352;-52
2023/12/16 20:11:21;;;;;;;8.10;2.97;;;;;;;17.38;61.26;103565.91;10520689;28;20021;-51
2023/12/16 20:16:23;;;;;;;7.93;3.37;;;;;;;17.34;61.37;103564.72;10477312;28;20019;-48
2023/12/16 20:21:23;;;;;;;7.07;3.85;;;;;;;17.29;61.33;103561.88;10509910;28;20285;-52
2023/12/16 20:26:24;;;;;;;8.43;3.35;;;;;;;17.25;61.37;103556.09;10501779;28;20033;-51
2023/12/16 20:31:24;;;;;;;7.93;2.90;;;;;;;17.19;61.06;103551.63;10495907;28;20032;-52
2023/12/16 20:36:27;;;;;;;6.97;3.37;;;;;;;17.14;61.72;103543.41;10514932;28;20262;-52
2023/12/16 20:41:27;;;;;;;5.78;3.38;;;;;;;17.13;60.92;103552.47;10497020;28;20718;-49
2023/12/16 20:46:28;;;;;;;5.80;2.80;;;;;;;17.06;62.57;103567.81;10466616;28;20031;-53
2023/12/16 20:51:28;;;;;;;5.10;3.05;;;;;;;17.03;61.33;103555.63;10469597;28;20290;-50
2023/12/16 20:56:29;;;;;;;7.43;3.97;;;;;;;17.01;62.29;103557.72;10468937;28;20575;-50
2023/12/16 21:01:29;;;;;;;6.05;3.13;;;;;;;16.99;61.84;103557.09;10490680;28;20294;-50
2023/12/16 21:06:30;;;;;;;4.68;2.78;;;;;;;16.97;61.36;103544.97;10493211;28;20411;-51
2023/12/16 21:11:30;;;;;;;4.30;2.53;;;;;;;16.94;61.19;103548.91;10490297;28;20028;-50
2023/12/16 21:16:30;;;;;;;8.18;2.75;;;;;;;16.90;62.58;103548.50;10477801;28;20750;-52
2023/12/16 21:21:31;;;;;;;5.93;3.43;;;;;;;16.87;61.80;103551.59;10493925;28;20028;-51
2023/12/16 21:26:31;;;;;;;6.43;2.70;;;;;;;16.85;61.60;103559.03;10492607;28;20299;-50
2023/12/16 21:31:32;;;;;;;5.22;2.85;;;;;;;16.83;62.65;103573.69;10497349;28;20290;-48
2023/12/16 21:36:32;;;;;;;5.05;3.05;;;;;;;16.82;61.14;103577.41;10492342;28;20205;-47
2023/12/16 21:41:33;;;;;;;4.40;2.50;;;;;;;16.79;62.11;103567.94;10490003;28;20408;-49
2023/12/16 21:46:33;;;;;;;4.57;2.90;;;;;;;16.77;61.45;103563.81;10491014;28;20298;-49
2023/12/16 21:51:33;;;;;;;5.27;2.50;;;;;;;16.75;61.68;103561.34;10513453;28;20035;-51
2023/12/16 21:56:34;;;;;;;3.85;2.35;;;;;;;16.72;61.65;103547.56;10533706;28;20265;-50
2023/12/16 22:01:34;;;;;;;5.50;2.70;;;;;;;16.71;62.79;103540.56;10533955;28;20491;-52
2023/12/16 22:06:35;;;;;;;4.60;2.58;;;;;;;16.67;61.78;103540.97;10533008;28;20757;-51
2023/12/16 22:11:35;;;;;;;3.72;2.40;;;;;;;16.66;62.74;103541.16;10497882;28;20536;-52
2023/12/16 22:16:35;;;;;;;5.18;3.10;;;;;;;16.63;63.14;103529.03;10491394;28;20453;-52
2023/12/16 22:21:35;;;;;;;4.00;2.33;;;;;;;16.62;61.29;103522.03;10491668;28;20031;-52
2023/12/16 22:26:36;;;;;;;5.83;2.70;;;;;;;16.61;62.86;103501.63;10490939;28;20287;-50
2023/12/16 22:31:39;;;;;;;4.38;2.47;;;;;;;16.59;61.59;103502.91;10501135;28;20310;-50
2023/12/16 22:36:40;;;;;;;4.35;2.60;;;;;;;16.57;61.29;103516.47;10493312;28;20020;-50
2023/12/16 22:41:40;;;;;;;5.17;1.93;;;;;;;16.57;62.59;103511.13;10533250;28;20372;-52
2023/12/16 22:46:40;;;;;;;2.97;1.90;;;;;;;16.54;63.07;103502.69;10497849;28;20294;-49
2023/12/16 22:51:41;;;;;;;4.30;2.17;;;;;;;16.54;61.48;103511.56;10499250;28;20033;-48
2023/12/16 22:56:41;;;;;;;4.55;2.35;;;;;;;16.51;62.33;103517.34;10498625;28;20343;-48